Time;durP1;ratioP1;P1;durP2;ratioP2;P2;SDS_P1;SDS_P2;PMS_P1;PMS_P2;Temp;Humidity;BMP_temperature;BMP_pressure;BME280_temperature;BME280_humidity;BME280_pressure;Samples;Min_cycle;Max_cycle;Signal;HPM_P1;HPM_P2
2022/03/02 00:00:07;;;;;;;9.27;5.68;;;;;;;;;;5072782;28;20029;-65
2022/03/02 00:02:33;;;;;;;9.15;6.18;;;;;;;;;;5072977;28;20887;-65
2022/03/02 00:04:59;;;;;;;8.00;5.45;;;;;;;;;;5073515;28;20112;-65
2022/03/02 00:07:26;;;;;;;9.20;5.40;;;;;;;;;;5073430;28;20029;-65
2022/03/02 00:09:52;;;;;;;5.93;4.95;;;;;;;;;;5073507;28;20017;-68
2022/03/02 00:12:18;;;;;;;7.65;5.93;;;;;;;;;;5073221;28;20084;-65
2022/03/02 00:14:44;;;;;;;6.88;5.20;;;;;;;;;;5073207;28;20037;-65
2022/03/02 00:17:10;;;;;;;7.38;5.30;;;;;;;;;;5072418;28;20029;-66
2022/03/02 00:19:37;;;;;;;7.88;5.18;;;;;;;;;;5073137;28;20098;-65
2022/03/02 00:22:04;;;;;;;7.80;5.70;;;;;;;;;;5073015;28;20463;-67
2022/03/02 00:24:30;;;;;;;7.28;5.07;;;;;;;;;;5073412;28;20033;-67
2022/03/02 00:26:56;;;;;;;8.07;5.07;;;;;;;;;;5055123;28;20086;-67
2022/03/02 00:29:22;;;;;;;7.85;5.60;;;;;;;;;;5072885;28;20021;-68
2022/03/02 00:31:48;;;;;;;7.80;5.20;;;;;;;;;;5054970;28;20138;-69
2022/03/02 00:34:14;;;;;;;8.07;5.57;;;;;;;;;;5054644;28;20450;-68
2022/03/02 00:36:40;;;;;;;6.28;4.90;;;;;;;;;;5072746;28;20024;-67
2022/03/02 00:39:06;;;;;;;13.05;5.65;;;;;;;;;;5072960;28;20123;-68
2022/03/02 00:41:33;;;;;;;7.35;4.93;;;;;;;;;;5072461;28;20368;-65
2022/03/02 00:43:59;;;;;;;7.45;5.40;;;;;;;;;;5072645;28;20021;-67
2022/03/02 00:46:29;;;;;;;8.70;5.68;;;;;;;;;;5072591;28;20040;-66
2022/03/02 00:48:56;;;;;;;7.68;5.80;;;;;;;;;;5072751;28;20024;-65
2022/03/02 00:51:22;;;;;;;8.90;5.60;;;;;;;;;;5071479;28;20060;-67
2022/03/02 00:53:48;;;;;;;7.38;5.43;;;;;;;;;;5072024;28;20029;-67
2022/03/02 00:56:14;;;;;;;6.93;5.40;;;;;;;;;;5072551;28;20036;-67
2022/03/02 00:58:40;;;;;;;8.32;5.15;;;;;;;;;;5072215;28;20032;-66
2022/03/02 01:01:06;;;;;;;11.52;5.03;;;;;;;;;;5072336;28;20472;-66
2022/03/02 01:03:32;;;;;;;14.27;5.88;;;;;;;;;;5058570;28;20037;-67
2022/03/02 01:05:59;;;;;;;13.45;6.43;;;;;;;;;;5072255;28;20415;-67
2022/03/02 01:08:25;;;;;;;18.65;6.30;;;;;;;;;;5071711;28;20126;-67
2022/03/02 01:10:51;;;;;;;11.07;5.60;;;;;;;;;;5072528;28;20491;-68
2022/03/02 01:13:17;;;;;;;19.05;5.85;;;;;;;;;;5071875;28;20052;-67
2022/03/02 01:15:43;;;;;;;13.65;5.93;;;;;;;;;;5072055;28;20051;-66
2022/03/02 01:18:09;;;;;;;10.93;5.97;;;;;;;;;;5072357;28;20146;-65
2022/03/02 01:20:35;;;;;;;7.13;4.88;;;;;;;;;;5071932;28;20735;-67
2022/03/02 01:23:01;;;;;;;19.13;6.22;;;;;;;;;;5071630;28;20029;-67
2022/03/02 01:25:27;;;;;;;13.52;5.88;;;;;;;;;;5070781;28;20068;-65
2022/03/02 01:27:53;;;;;;;8.98;6.20;;;;;;;;;;5071135;28;20078;-64
2022/03/02 01:30:20;;;;;;;9.85;6.22;;;;;;;;;;5072075;28;20066;-64
2022/03/02 01:32:46;;;;;;;12.98;5.72;;;;;;;;;;5053587;28;20026;-65
2022/03/02 01:35:12;;;;;;;10.38;6.07;;;;;;;;;;5071754;28;20091;-66
2022/03/02 01:37:38;;;;;;;11.15;5.40;;;;;;;;;;5070659;28;20024;-68
2022/03/02 01:40:05;;;;;;;9.98;6.03;;;;;;;;;;5071766;28;20036;-67
2022/03/02 01:42:31;;;;;;;10.63;5.72;;;;;;;;;;5070730;28;20075;-67
2022/03/02 01:44:57;;;;;;;15.93;6.00;;;;;;;;;;5071657;28;20033;-67
2022/03/02 01:47:27;;;;;;;8.25;5.18;;;;;;;;;;5053706;28;20025;-67
2022/03/02 01:49:53;;;;;;;8.02;4.82;;;;;;;;;;5071962;28;20369;-65
2022/03/02 01:52:19;;;;;;;7.28;5.50;;;;;;;;;;5071534;28;20518;-66
2022/03/02 01:54:46;;;;;;;12.32;5.80;;;;;;;;;;5071959;28;20062;-65
2022/03/02 01:57:12;;;;;;;9.63;5.72;;;;;;;;;;5071568;28;20107;-65
2022/03/02 01:59:38;;;;;;;10.10;5.82;;;;;;;;;;5071171;28;20108;-65
2022/03/02 02:02:04;;;;;;;10.00;5.88;;;;;;;;;;5071784;28;20029;-66
2022/03/02 02:04:30;;;;;;;11.82;5.85;;;;;;;;;;5074460;28;20403;-65
2022/03/02 02:06:56;;;;;;;8.05;5.70;;;;;;;;;;5075924;28;20474;-65
2022/03/02 02:09:22;;;;;;;7.70;5.75;;;;;;;;;;5075516;28;20051;-65
2022/03/02 02:11:48;;;;;;;10.88;5.68;;;;;;;;;;5075460;28;20032;-66
2022/03/02 02:14:14;;;;;;;10.77;6.07;;;;;;;;;;5075494;28;20182;-66
2022/03/02 02:16:40;;;;;;;9.93;6.18;;;;;;;;;;5074791;28;20028;-66
2022/03/02 02:19:06;;;;;;;8.88;6.15;;;;;;;;;;5057571;28;20135;-65
2022/03/02 02:21:32;;;;;;;6.35;5.20;;;;;;;;;;5075452;28;20024;-65
2022/03/02 02:23:58;;;;;;;9.63;5.78;;;;;;;;;;5075394;28;20025;-66
2022/03/02 02:26:25;;;;;;;10.68;6.20;;;;;;;;;;5075395;28;20081;-66
2022/03/02 02:28:51;;;;;;;9.52;5.55;;;;;;;;;;5075056;28;20025;-66
2022/03/02 02:31:17;;;;;;;10.63;5.97;;;;;;;;;;5075649;28;20035;-66
2022/03/02 02:33:43;;;;;;;7.90;5.88;;;;;;;;;;5074766;28;20163;-67
2022/03/02 02:36:09;;;;;;;7.68;5.68;;;;;;;;;;5082782;28;20029;-67
2022/03/02 02:38:35;;;;;;;8.13;5.38;;;;;;;;;;5075026;28;20040;-66
2022/03/02 02:41:02;;;;;;;7.80;5.75;;;;;;;;;;5074943;28;20020;-66
2022/03/02 02:43:28;;;;;;;8.80;5.65;;;;;;;;;;5075272;28;20034;-66
2022/03/02 02:45:54;;;;;;;14.30;6.07;;;;;;;;;;5074821;28;20040;-65
2022/03/02 02:48:20;;;;;;;6.75;5.40;;;;;;;;;;5075277;28;20027;-66
2022/03/02 02:50:46;;;;;;;8.00;5.85;;;;;;;;;;5073984;28;20127;-67
2022/03/02 02:53:13;;;;;;;8.75;5.75;;;;;;;;;;5074510;28;20035;-67
2022/03/02 02:55:40;;;;;;;9.18;6.05;;;;;;;;;;5074830;28;20333;-67
2022/03/02 02:58:06;;;;;;;7.60;6.07;;;;;;;;;;5074670;28;20024;-67
2022/03/02 03:00:36;;;;;;;23.83;7.18;;;;;;;;;;5074779;28;20078;-68
2022/03/02 03:03:03;;;;;;;8.35;5.47;;;;;;;;;;5074470;28;20107;-67
2022/03/02 03:05:31;;;;;;;8.07;5.93;;;;;;;;;;5074819;28;20111;-67
2022/03/02 03:07:58;;;;;;;7.57;5.82;;;;;;;;;;5074143;28;20029;-66
2022/03/02 03:10:25;;;;;;;11.05;6.43;;;;;;;;;;5074784;28;20111;-66
2022/03/02 03:12:51;;;;;;;9.93;6.00;;;;;;;;;;5074260;28;20059;-66
2022/03/02 03:15:19;;;;;;;8.13;5.88;;;;;;;;;;5073414;28;20035;-66
2022/03/02 03:17:45;;;;;;;8.43;5.82;;;;;;;;;;5074316;28;20020;-66
2022/03/02 03:20:12;;;;;;;13.10;6.00;;;;;;;;;;5074525;28;20082;-65
2022/03/02 03:22:38;;;;;;;10.63;6.15;;;;;;;;;;5074256;28;20090;-66
2022/03/02 03:25:06;;;;;;;7.53;5.82;;;;;;;;;;5073499;28;20045;-66
2022/03/02 03:27:32;;;;;;;8.65;6.32;;;;;;;;;;5073756;28;20074;-67
2022/03/02 03:29:58;;;;;;;8.82;5.97;;;;;;;;;;5074390;28;20031;-66
2022/03/02 03:32:24;;;;;;;12.05;5.95;;;;;;;;;;5074279;28;20033;-66
2022/03/02 03:34:50;;;;;;;9.68;6.05;;;;;;;;;;5076284;28;20075;-68
2022/03/02 03:37:16;;;;;;;11.93;6.43;;;;;;;;;;5094408;28;20027;-68
2022/03/02 03:39:42;;;;;;;8.73;6.05;;;;;;;;;;5094181;28;20029;-67
2022/03/02 03:42:09;;;;;;;12.68;6.15;;;;;;;;;;5073394;28;20024;-67
2022/03/02 03:44:35;;;;;;;11.77;6.53;;;;;;;;;;5074085;28;20048;-67
2022/03/02 03:47:01;;;;;;;9.88;6.43;;;;;;;;;;5073815;28;20029;-67
2022/03/02 03:49:27;;;;;;;12.43;6.90;;;;;;;;;;5073749;28;20035;-67
2022/03/02 03:51:53;;;;;;;8.02;5.90;;;;;;;;;;5055891;28;20031;-67
2022/03/02 03:54:19;;;;;;;14.80;6.63;;;;;;;;;;5073755;28;20020;-66
2022/03/02 03:56:45;;;;;;;16.35;6.75;;;;;;;;;;5073762;28;20337;-67
2022/03/02 03:59:11;;;;;;;9.68;6.53;;;;;;;;;;5072483;28;20478;-65
2022/03/02 04:01:37;;;;;;;10.43;5.93;;;;;;;;;;5055411;28;20024;-65
2022/03/02 04:04:03;;;;;;;9.45;5.80;;;;;;;;;;5055691;28;20039;-65
2022/03/02 04:06:29;;;;;;;11.23;6.13;;;;;;;;;;5055576;28;20089;-66
2022/03/02 04:08:55;;;;;;;11.63;6.05;;;;;;;;;;5073574;28;20017;-65
2022/03/02 04:11:22;;;;;;;10.13;6.57;;;;;;;;;;5055172;28;20089;-66
2022/03/02 04:13:48;;;;;;;7.22;5.72;;;;;;;;;;5073534;28;20040;-65
2022/03/02 04:16:14;;;;;;;9.23;6.13;;;;;;;;;;5072418;28;20038;-65
2022/03/02 04:18:40;;;;;;;9.07;5.53;;;;;;;;;;5073080;28;20024;-66
2022/03/02 04:21:06;;;;;;;10.95;6.35;;;;;;;;;;5072479;28;20036;-66
2022/03/02 04:23:32;;;;;;;11.98;6.95;;;;;;;;;;5072776;28;20090;-65
2022/03/02 04:25:58;;;;;;;8.45;6.03;;;;;;;;;;5073082;28;20039;-66
2022/03/02 04:28:24;;;;;;;11.98;6.28;;;;;;;;;;5072644;28;20020;-66
2022/03/02 04:30:50;;;;;;;6.22;5.57;;;;;;;;;;5073116;28;20039;-66
2022/03/02 04:33:16;;;;;;;13.23;5.93;;;;;;;;;;5072074;28;20025;-68
2022/03/02 04:35:42;;;;;;;8.55;5.90;;;;;;;;;;5072974;28;20024;-66
2022/03/02 04:38:10;;;;;;;8.77;5.88;;;;;;;;;;5073298;28;20111;-68
2022/03/02 04:40:36;;;;;;;9.48;6.07;;;;;;;;;;5072707;28;20086;-65
2022/03/02 04:43:02;;;;;;;9.43;5.93;;;;;;;;;;5072507;28;20048;-65
2022/03/02 04:45:28;;;;;;;6.35;5.00;;;;;;;;;;5072658;28;20036;-65
2022/03/02 04:47:55;;;;;;;6.93;5.07;;;;;;;;;;5060640;28;20063;-67
2022/03/02 04:50:22;;;;;;;6.35;4.60;;;;;;;;;;5072999;28;20028;-67
2022/03/02 04:52:49;;;;;;;12.60;5.03;;;;;;;;;;5072738;28;20025;-66
2022/03/02 04:55:16;;;;;;;13.98;5.28;;;;;;;;;;5072557;28;20028;-65
2022/03/02 04:57:42;;;;;;;11.63;5.13;;;;;;;;;;5072319;28;20016;-64
2022/03/02 05:00:11;;;;;;;7.78;5.00;;;;;;;;;;5054518;28;20078;-64
2022/03/02 05:02:37;;;;;;;12.15;5.03;;;;;;;;;;5072402;28;20414;-64
2022/03/02 05:05:04;;;;;;;7.70;4.70;;;;;;;;;;5071521;28;20472;-65
2022/03/02 05:07:30;;;;;;;10.18;5.60;;;;;;;;;;5054446;28;20040;-66
2022/03/02 05:09:56;;;;;;;11.18;5.20;;;;;;;;;;5072373;28;20019;-66
2022/03/02 05:12:22;;;;;;;9.73;5.22;;;;;;;;;;5072047;28;20635;-67
2022/03/02 05:14:49;;;;;;;9.80;5.03;;;;;;;;;;5072213;28;20037;-66
2022/03/02 05:17:17;;;;;;;7.97;4.85;;;;;;;;;;5054353;28;20536;-67
2022/03/02 05:19:43;;;;;;;6.47;4.68;;;;;;;;;;5071346;28;20549;-66
2022/03/02 05:22:09;;;;;;;7.45;4.68;;;;;;;;;;5072394;28;20024;-66
2022/03/02 05:24:36;;;;;;;9.45;5.00;;;;;;;;;;5072157;28;20062;-66
2022/03/02 05:27:02;;;;;;;10.13;5.00;;;;;;;;;;5071963;28;20054;-65
2022/03/02 05:29:28;;;;;;;11.35;4.53;;;;;;;;;;5072128;28;20035;-67
2022/03/02 05:31:54;;;;;;;13.10;5.45;;;;;;;;;;5072014;28;20029;-66
2022/03/02 05:34:20;;;;;;;8.10;4.65;;;;;;;;;;5072563;28;20094;-67
2022/03/02 05:36:46;;;;;;;11.18;4.88;;;;;;;;;;5071491;28;20035;-67
2022/03/02 05:39:12;;;;;;;6.90;4.25;;;;;;;;;;5071357;28;20629;-68
2022/03/02 05:41:39;;;;;;;5.82;4.05;;;;;;;;;;5071713;28;20494;-67
2022/03/02 05:44:07;;;;;;;9.63;4.50;;;;;;;;;;5072204;28;20362;-66
2022/03/02 05:46:33;;;;;;;14.85;5.10;;;;;;;;;;5071995;28;20052;-66
2022/03/02 05:48:59;;;;;;;13.25;4.90;;;;;;;;;;5072151;28;20028;-65
2022/03/02 05:51:25;;;;;;;12.38;5.55;;;;;;;;;;5071299;28;20021;-67
2022/03/02 05:53:51;;;;;;;7.40;5.20;;;;;;;;;;5070174;28;20047;-65
2022/03/02 05:56:17;;;;;;;24.17;5.20;;;;;;;;;;5071616;28;20108;-65
2022/03/02 05:58:43;;;;;;;10.23;4.70;;;;;;;;;;5071603;28;20375;-66
2022/03/02 06:01:09;;;;;;;8.13;4.78;;;;;;;;;;5071735;28;20024;-66
2022/03/02 06:03:35;;;;;;;9.38;4.90;;;;;;;;;;5071758;28;20079;-65
2022/03/02 06:06:02;;;;;;;10.43;4.88;;;;;;;;;;5072116;28;20070;-66
2022/03/02 06:08:28;;;;;;;7.28;4.90;;;;;;;;;;5072036;28;20367;-64
2022/03/02 06:10:54;;;;;;;10.98;4.85;;;;;;;;;;5070579;28;20040;-65
2022/03/02 06:13:20;;;;;;;8.25;4.95;;;;;;;;;;5071314;28;20044;-63
2022/03/02 06:15:46;;;;;;;8.35;4.70;;;;;;;;;;5071678;28;20040;-63
2022/03/02 06:18:12;;;;;;;11.75;4.55;;;;;;;;;;5071974;28;20050;-65
2022/03/02 06:20:38;;;;;;;12.80;5.20;;;;;;;;;;5071607;28;20032;-64
2022/03/02 06:23:04;;;;;;;7.30;5.40;;;;;;;;;;5071382;28;20103;-66
2022/03/02 06:25:31;;;;;;;12.23;6.03;;;;;;;;;;5071416;28;20025;-66
2022/03/02 06:27:57;;;;;;;10.63;7.30;;;;;;;;;;5078744;28;20043;-66
2022/03/02 06:30:23;;;;;;;12.68;7.90;;;;;;;;;;5071081;28;20028;-66
2022/03/02 06:32:49;;;;;;;13.75;7.40;;;;;;;;;;5070806;28;20107;-66
2022/03/02 06:35:15;;;;;;;9.80;7.85;;;;;;;;;;5055445;28;20147;-67
2022/03/02 06:37:41;;;;;;;12.73;7.50;;;;;;;;;;5071094;28;20121;-65
2022/03/02 06:40:08;;;;;;;17.75;8.23;;;;;;;;;;5070912;28;20029;-65
2022/03/02 06:42:40;;;;;;;13.27;7.97;;;;;;;;;;5070850;28;20029;-67
2022/03/02 06:45:18;;;;;;;25.53;8.93;;;;;;;;;;5069811;28;20041;-65
2022/03/02 06:47:52;;;;;;;17.65;7.97;;;;;;;;;;5070630;28;20039;-66
2022/03/02 06:50:18;;;;;;;18.27;7.97;;;;;;;;;;5070843;28;20112;-66
2022/03/02 06:52:45;;;;;;;15.68;7.63;;;;;;;;;;5074177;28;20055;-67
2022/03/02 06:55:12;;;;;;;12.10;7.78;;;;;;;;;;5074282;28;20515;-66
2022/03/02 06:57:39;;;;;;;36.05;8.95;;;;;;;;;;5073950;28;20025;-67
2022/03/02 07:00:10;;;;;;;24.90;8.00;;;;;;;;;;5073406;28;20429;-68
2022/03/02 07:02:39;;;;;;;28.25;7.70;;;;;;;;;;5074442;28;20024;-70
2022/03/02 07:05:06;;;;;;;32.22;8.05;;;;;;;;;;5074697;28;20016;-68
2022/03/02 07:07:34;;;;;;;57.55;8.38;;;;;;;;;;5074387;28;20029;-66
2022/03/02 07:10:00;;;;;;;54.13;9.02;;;;;;;;;;5074556;28;20021;-67
2022/03/02 07:12:27;;;;;;;37.28;8.43;;;;;;;;;;5074034;28;20052;-67
2022/03/02 07:14:53;;;;;;;42.70;9.25;;;;;;;;;;5074184;28;20036;-66
2022/03/02 07:17:21;;;;;;;57.75;10.02;;;;;;;;;;5073606;28;20032;-70
2022/03/02 07:19:47;;;;;;;32.40;8.70;;;;;;;;;;5074437;28;20039;-73
2022/03/02 07:22:15;;;;;;;30.15;8.50;;;;;;;;;;5058678;28;20484;-72
2022/03/02 07:24:44;;;;;;;37.55;8.00;;;;;;;;;;5074300;28;20028;-72
2022/03/02 07:27:10;;;;;;;31.70;8.60;;;;;;;;;;5073571;28;20067;-70
2022/03/02 07:29:37;;;;;;;21.75;8.55;;;;;;;;;;5074388;28;20476;-70
2022/03/02 07:32:04;;;;;;;21.55;8.65;;;;;;;;;;5074415;28;20033;-71
2022/03/02 07:34:31;;;;;;;36.30;8.68;;;;;;;;;;5074468;28;20418;-69
2022/03/02 07:36:59;;;;;;;22.55;9.63;;;;;;;;;;5056571;28;20025;-71
2022/03/02 07:39:25;;;;;;;28.35;8.25;;;;;;;;;;5056792;28;20032;-71
2022/03/02 07:41:52;;;;;;;23.77;7.85;;;;;;;;;;5074353;28;20024;-71
2022/03/02 07:44:18;;;;;;;26.02;8.68;;;;;;;;;;5056451;28;20021;-72
2022/03/02 07:46:45;;;;;;;22.48;7.68;;;;;;;;;;5074585;28;20024;-72
2022/03/02 07:49:12;;;;;;;24.38;8.25;;;;;;;;;;5074414;28;20031;-73
2022/03/02 07:51:39;;;;;;;27.08;8.23;;;;;;;;;;5074713;28;20016;-70
2022/03/02 07:54:06;;;;;;;16.52;8.25;;;;;;;;;;5074580;28;20029;-71
2022/03/02 07:56:32;;;;;;;18.75;7.90;;;;;;;;;;5074496;28;20025;-72
2022/03/02 07:59:01;;;;;;;16.63;8.13;;;;;;;;;;5056205;28;20463;-72
2022/03/02 08:01:27;;;;;;;15.35;8.75;;;;;;;;;;5073660;28;20031;-72
2022/03/02 08:03:54;;;;;;;24.33;9.57;;;;;;;;;;5056326;28;20028;-72
2022/03/02 08:06:20;;;;;;;18.02;8.43;;;;;;;;;;5074404;28;20029;-73
2022/03/02 08:08:47;;;;;;;13.27;8.27;;;;;;;;;;5074271;28;20456;-73
2022/03/02 08:11:13;;;;;;;13.45;8.65;;;;;;;;;;5073753;28;20025;-71
2022/03/02 08:13:40;;;;;;;20.25;8.60;;;;;;;;;;5073890;28;20047;-71
2022/03/02 08:16:06;;;;;;;14.98;8.70;;;;;;;;;;5074060;28;20031;-72
2022/03/02 08:18:33;;;;;;;16.65;9.43;;;;;;;;;;5073804;28;20036;-71
2022/03/02 08:21:00;;;;;;;23.33;9.00;;;;;;;;;;5073545;28;20082;-69
2022/03/02 08:23:29;;;;;;;20.98;9.20;;;;;;;;;;5073455;28;20055;-69
2022/03/02 08:25:56;;;;;;;13.07;8.50;;;;;;;;;;5053616;28;20045;-70
2022/03/02 08:28:23;;;;;;;20.13;9.57;;;;;;;;;;5035612;28;20021;-71
2022/03/02 08:30:50;;;;;;;18.60;8.55;;;;;;;;;;5068264;28;20498;-71
2022/03/02 08:33:19;;;;;;;23.15;9.05;;;;;;;;;;5073038;28;20066;-71
2022/03/02 08:35:45;;;;;;;20.42;8.57;;;;;;;;;;5081484;28;20029;-68
2022/03/02 08:38:12;;;;;;;23.00;9.90;;;;;;;;;;5058228;28;20024;-71
2022/03/02 08:40:38;;;;;;;18.67;10.07;;;;;;;;;;5083068;28;20027;-71
2022/03/02 08:43:07;;;;;;;19.55;11.27;;;;;;;;;;5082667;28;20028;-72
2022/03/02 08:45:33;;;;;;;20.13;10.73;;;;;;;;;;5081529;28;20124;-71
2022/03/02 08:48:05;;;;;;;22.58;11.85;;;;;;;;;;5087013;28;20368;-71
2022/03/02 08:50:31;;;;;;;17.13;10.77;;;;;;;;;;5070748;28;20629;-71
2022/03/02 08:52:57;;;;;;;22.23;12.35;;;;;;;;;;5082903;28;20514;-71
2022/03/02 08:55:30;;;;;;;17.42;12.15;;;;;;;;;;5079242;28;20029;-72
2022/03/02 08:57:56;;;;;;;;;;;;;;;;;;5078888;28;20024;-72
2022/03/02 09:00:22;;;;;;;27.55;13.38;;;;;;;;;;5078045;28;19913;-72
2022/03/02 09:02:48;;;;;;;22.50;14.32;;;;;;;;;;5081484;28;20047;-72
2022/03/02 09:05:14;;;;;;;25.00;13.68;;;;;;;;;;5069445;28;20166;-69
2022/03/02 09:07:41;;;;;;;22.77;14.73;;;;;;;;;;5080173;28;20029;-69
2022/03/02 09:10:08;;;;;;;30.95;15.40;;;;;;;;;;5081043;28;20092;-71
2022/03/02 09:12:34;;;;;;;23.35;14.88;;;;;;;;;;5084277;28;20387;-73
2022/03/02 09:15:00;;;;;;;28.67;15.52;;;;;;;;;;5072959;28;20024;-72
2022/03/02 09:17:26;;;;;;;30.10;15.95;;;;;;;;;;5076043;28;20028;-71
2022/03/02 09:19:56;;;;;;;30.85;16.38;;;;;;;;;;5080558;28;20043;-71
2022/03/02 09:22:23;;;;;;;38.13;18.15;;;;;;;;;;5079043;28;20038;-72
2022/03/02 09:24:49;;;;;;;33.55;17.65;;;;;;;;;;5076526;28;20515;-71
2022/03/02 09:27:17;;;;;;;23.73;17.08;;;;;;;;;;5084896;28;20467;-73
2022/03/02 09:29:46;;;;;;;25.92;17.90;;;;;;;;;;5083878;28;20028;-79
2022/03/02 09:32:13;;;;;;;24.63;16.10;;;;;;;;;;5057483;28;20115;-77
2022/03/02 09:34:40;;;;;;;27.30;17.10;;;;;;;;;;5076565;28;20017;-75
2022/03/02 09:37:09;;;;;;;30.98;17.30;;;;;;;;;;5069830;28;20020;-89
2022/03/02 09:39:35;;;;;;;29.80;17.63;;;;;;;;;;5082979;28;20048;-74
2022/03/02 09:42:01;;;;;;;29.10;17.48;;;;;;;;;;5076288;28;20376;-78
2022/03/02 09:44:41;;;;;;;28.63;16.67;;;;;;;;;;5077093;28;20069;-70
2022/03/02 09:47:11;;;;;;;33.55;17.63;;;;;;;;;;5073866;28;20032;-79
2022/03/02 09:49:41;;;;;;;39.72;16.88;;;;;;;;;;5093182;28;20035;-80
2022/03/02 09:52:09;;;;;;;26.80;16.70;;;;;;;;;;5091075;28;20028;-78
2022/03/02 09:54:37;;;;;;;22.60;15.38;;;;;;;;;;5067350;28;20078;-78
2022/03/02 09:57:04;;;;;;;26.92;15.55;;;;;;;;;;5078623;28;20020;-78
2022/03/02 09:59:33;;;;;;;26.10;15.77;;;;;;;;;;5080221;28;20044;-81
2022/03/02 10:02:00;;;;;;;26.52;16.25;;;;;;;;;;5083192;28;20467;-84
2022/03/02 10:04:28;;;;;;;25.42;16.63;;;;;;;;;;5079729;28;20028;-79
2022/03/02 10:07:26;;;;;;;35.33;17.60;;;;;;;;;;5083543;28;20037;-80
2022/03/02 10:09:46;;;;;;;43.90;17.75;;;;;;;;;;5083505;28;20115;-80
2022/03/02 10:12:14;;;;;;;36.35;16.80;;;;;;;;;;5090147;28;20056;-77
2022/03/02 10:22:14;;;;;;;39.60;17.60;;;;;;;;;;5131522;27;20336;-79
2022/03/02 10:24:48;;;;;;;18.90;13.63;;;;;;;;;;5100693;28;20031;-84
2022/03/02 10:27:27;;;;;;;31.15;14.68;;;;;;;;;;5110670;28;20089;-79
2022/03/02 10:30:01;;;;;;;33.97;15.18;;;;;;;;;;5110750;28;20031;-79
2022/03/02 10:32:30;;;;;;;22.30;15.15;;;;;;;;;;5110767;28;20024;-80
2022/03/02 10:35:00;;;;;;;28.20;16.92;;;;;;;;;;5110779;28;20028;-81
2022/03/02 10:37:30;;;;;;;31.63;16.73;;;;;;;;;;5110312;28;20497;-79
2022/03/02 10:39:58;;;;;;;33.47;16.58;;;;;;;;;;5110415;28;20045;-75
2022/03/02 10:42:31;;;;;;;35.88;16.85;;;;;;;;;;5096186;28;20474;-88
2022/03/02 10:45:06;;;;;;;39.78;17.98;;;;;;;;;;5093545;28;20391;-92
2022/03/02 10:47:33;;;;;;;31.25;18.05;;;;;;;;;;5077840;28;20028;-91
2022/03/02 10:50:00;;;;;;;23.83;16.65;;;;;;;;;;5090709;28;20333;-81
2022/03/02 10:52:27;;;;;;;26.88;16.63;;;;;;;;;;5090835;28;20071;-83
2022/03/02 10:54:55;;;;;;;26.77;16.75;;;;;;;;;;5090737;28;20444;-86
2022/03/02 10:57:23;;;;;;;21.48;15.82;;;;;;;;;;5089015;28;20032;-82
2022/03/02 10:59:52;;;;;;;27.65;17.02;;;;;;;;;;5074065;28;20048;-86
2022/03/02 11:02:21;;;;;;;22.50;15.68;;;;;;;;;;5092762;28;20028;-84
2022/03/02 11:04:48;;;;;;;27.08;16.50;;;;;;;;;;5086527;28;20025;-85
2022/03/02 11:07:16;;;;;;;23.90;16.58;;;;;;;;;;5091528;28;20467;-86
2022/03/02 11:09:48;;;;;;;24.55;16.60;;;;;;;;;;5091524;28;20020;-81
2022/03/02 11:12:14;;;;;;;25.55;16.33;;;;;;;;;;5073461;28;20024;-83
2022/03/02 11:14:56;;;;;;;22.05;16.00;;;;;;;;;;5091489;28;20464;-82
2022/03/02 11:17:23;;;;;;;22.10;16.65;;;;;;;;;;5091836;28;20074;-81
2022/03/02 11:19:49;;;;;;;24.02;16.98;;;;;;;;;;5088514;28;20048;-87
2022/03/02 11:22:17;;;;;;;24.27;16.40;;;;;;;;;;5049955;28;20369;-85
2022/03/02 11:24:44;;;;;;;20.98;16.20;;;;;;;;;;5071114;28;20021;-91
2022/03/02 11:27:26;;;;;;;23.55;16.70;;;;;;;;;;5070651;28;20107;-82
2022/03/02 11:30:07;;;;;;;25.42;16.92;;;;;;;;;;5068411;28;20029;-87
2022/03/02 11:32:34;;;;;;;28.23;16.85;;;;;;;;;;5063582;28;20021;-84
2022/03/02 11:35:00;;;;;;;33.00;16.65;;;;;;;;;;5053676;28;20021;-79
2022/03/02 11:37:28;;;;;;;26.38;16.83;;;;;;;;;;5061935;28;20384;-89
2022/03/02 11:39:54;;;;;;;24.77;16.67;;;;;;;;;;5040682;28;20036;-80
2022/03/02 11:42:27;;;;;;;25.33;16.92;;;;;;;;;;5056556;28;20059;-85
2022/03/02 11:44:55;;;;;;;22.25;16.33;;;;;;;;;;5060161;28;20025;-90
2022/03/02 11:47:21;;;;;;;24.90;16.63;;;;;;;;;;5059074;28;20025;-89
2022/03/02 11:49:47;;;;;;;24.17;16.98;;;;;;;;;;5061111;28;20028;-90
2022/03/02 11:52:24;;;;;;;30.42;17.40;;;;;;;;;;5055128;28;20111;-80
2022/03/02 11:54:53;;;;;;;55.00;19.27;;;;;;;;;;5031195;28;20033;-86
2022/03/02 11:57:20;;;;;;;46.85;18.33;;;;;;;;;;5044997;28;20116;-72
2022/03/02 11:59:46;;;;;;;59.97;20.48;;;;;;;;;;5051642;28;21015;-94
2022/03/02 12:02:13;;;;;;;36.08;19.33;;;;;;;;;;5055335;28;20415;-70
2022/03/02 12:04:39;;;;;;;43.65;18.48;;;;;;;;;;5051011;28;20047;-69
2022/03/02 12:07:06;;;;;;;38.08;19.02;;;;;;;;;;5045237;28;20037;-73
2022/03/02 12:09:33;;;;;;;43.53;19.08;;;;;;;;;;5041031;28;20039;-70
2022/03/02 12:12:07;;;;;;;35.80;18.42;;;;;;;;;;5048123;28;20028;-68
2022/03/02 12:14:53;;;;;;;45.05;19.67;;;;;;;;;;5053483;28;20365;-70
2022/03/02 12:17:21;;;;;;;42.95;18.65;;;;;;;;;;5035708;28;20025;-69
2022/03/02 12:19:48;;;;;;;45.60;19.95;;;;;;;;;;5036453;28;20029;-69
2022/03/02 12:22:17;;;;;;;42.45;19.20;;;;;;;;;;5062498;28;20090;-69
2022/03/02 12:24:44;;;;;;;40.80;18.90;;;;;;;;;;5062646;28;20021;-69
2022/03/02 12:27:10;;;;;;;36.17;20.02;;;;;;;;;;5045422;28;20384;-70
2022/03/02 12:29:41;;;;;;;38.83;19.45;;;;;;;;;;5065561;28;20109;-69
2022/03/02 12:32:15;;;;;;;37.15;18.05;;;;;;;;;;5059417;28;20024;-70
2022/03/02 12:34:43;;;;;;;29.60;17.65;;;;;;;;;;5042156;28;20096;-70
2022/03/02 12:37:10;;;;;;;31.85;17.67;;;;;;;;;;5034324;28;20042;-70
2022/03/02 12:39:37;;;;;;;34.95;17.45;;;;;;;;;;5034306;28;20040;-69
2022/03/02 12:42:07;;;;;;;32.97;17.63;;;;;;;;;;5033413;28;20117;-69
2022/03/02 12:44:35;;;;;;;31.27;18.40;;;;;;;;;;5014935;28;20109;-70
2022/03/02 12:47:03;;;;;;;30.63;18.20;;;;;;;;;;5033948;28;20082;-70
2022/03/02 12:49:30;;;;;;;35.00;18.70;;;;;;;;;;5033297;28;20037;-69
2022/03/02 12:51:56;;;;;;;32.90;18.77;;;;;;;;;;5032810;28;20094;-69
2022/03/02 12:54:23;;;;;;;30.48;18.40;;;;;;;;;;5053214;28;20068;-69
2022/03/02 12:56:49;;;;;;;37.05;18.90;;;;;;;;;;5035747;28;20052;-69
2022/03/02 12:59:16;;;;;;;29.67;18.52;;;;;;;;;;5053971;28;20017;-69
2022/03/02 13:01:42;;;;;;;28.77;18.13;;;;;;;;;;5055587;28;20036;-69
2022/03/02 13:04:11;;;;;;;32.95;18.13;;;;;;;;;;5073509;28;20021;-69
2022/03/02 13:06:39;;;;;;;30.98;18.55;;;;;;;;;;5073254;28;20032;-69
2022/03/02 13:09:06;;;;;;;34.75;18.77;;;;;;;;;;5073309;28;20031;-70
2022/03/02 13:11:32;;;;;;;28.80;18.33;;;;;;;;;;5072977;28;20043;-70
2022/03/02 13:13:58;;;;;;;25.90;17.75;;;;;;;;;;5073210;28;20383;-69
2022/03/02 13:16:37;;;;;;;31.20;17.95;;;;;;;;;;5055176;28;20027;-69
2022/03/02 13:19:15;;;;;;;27.80;17.45;;;;;;;;;;5073221;28;20035;-69
2022/03/02 13:21:41;;;;;;;25.25;17.80;;;;;;;;;;5071937;28;20036;-70
2022/03/02 13:24:13;;;;;;;29.25;18.13;;;;;;;;;;5093253;28;20024;-69
2022/03/02 13:26:58;;;;;;;27.35;17.30;;;;;;;;;;5093269;28;20048;-69
2022/03/02 13:29:29;;;;;;;33.33;17.35;;;;;;;;;;5093174;28;20034;-69
2022/03/02 13:31:59;;;;;;;25.45;16.98;;;;;;;;;;5092697;28;20069;-69
2022/03/02 13:34:30;;;;;;;24.60;16.63;;;;;;;;;;5093079;28;20479;-70
2022/03/02 13:36:57;;;;;;;24.13;16.85;;;;;;;;;;5074897;28;20097;-69
2022/03/02 13:39:31;;;;;;;24.63;16.70;;;;;;;;;;5074929;28;20103;-70
2022/03/02 13:41:57;;;;;;;22.80;16.38;;;;;;;;;;5092841;28;20387;-70
2022/03/02 13:44:35;;;;;;;26.95;16.60;;;;;;;;;;5092408;28;20459;-70
2022/03/02 13:47:07;;;;;;;23.63;16.27;;;;;;;;;;5093051;28;20360;-68
2022/03/02 13:49:54;;;;;;;23.38;16.63;;;;;;;;;;5092817;28;20483;-69
2022/03/02 13:52:29;;;;;;;22.42;16.08;;;;;;;;;;5093001;28;20036;-70
2022/03/02 13:54:56;;;;;;;24.55;16.35;;;;;;;;;;5092509;28;20467;-68
2022/03/02 13:57:24;;;;;;;23.08;16.73;;;;;;;;;;5092877;28;20020;-70
2022/03/02 14:00:10;;;;;;;20.95;15.60;;;;;;;;;;5092533;28;20028;-69
2022/03/02 14:02:36;;;;;;;23.13;15.60;;;;;;;;;;5092632;28;20060;-69
2022/03/02 14:05:02;;;;;;;22.02;15.98;;;;;;;;;;5092760;28;20028;-69
2022/03/02 14:07:30;;;;;;;25.63;15.43;;;;;;;;;;5074573;28;20024;-68
2022/03/02 14:10:13;;;;;;;22.30;16.27;;;;;;;;;;5074371;28;20035;-69
2022/03/02 14:12:51;;;;;;;21.00;16.00;;;;;;;;;;5092341;28;20020;-69
2022/03/02 14:15:18;;;;;;;20.90;15.85;;;;;;;;;;5074546;28;20120;-70
2022/03/02 14:17:45;;;;;;;23.38;15.55;;;;;;;;;;5092507;28;20028;-69
2022/03/02 14:20:11;;;;;;;22.70;16.58;;;;;;;;;;5092297;28;20048;-69
2022/03/02 14:22:37;;;;;;;23.23;16.52;;;;;;;;;;5092375;28;20594;-69
2022/03/02 14:25:11;;;;;;;20.00;15.45;;;;;;;;;;5074166;28;20027;-70
2022/03/02 14:27:37;;;;;;;20.77;15.10;;;;;;;;;;5092449;28;20065;-71
2022/03/02 14:30:05;;;;;;;19.55;15.40;;;;;;;;;;5092408;28;20502;-70
2022/03/02 14:32:43;;;;;;;21.42;16.08;;;;;;;;;;5092180;28;20024;-69
2022/03/02 14:35:12;;;;;;;24.15;15.90;;;;;;;;;;5087605;28;20549;-69
2022/03/02 14:37:41;;;;;;;23.27;15.73;;;;;;;;;;5090462;28;20035;-69